Reno, NV (89501)

9:25 AM PDT on August 29, 2016 (GMT -0700)
UNR Campus, LMR Roof | | Change Station
Active Advisory: Fire Weather Watch

Elev 4570 ft 39.54 °N, 119.81 °W | Updated 1 minute ago

Mostly Cloudy
Mostly Cloudy
71.7 °F
Feels Like 75 °F
N
1.1
Wind Variable Wind from WSW

Today
High -- | Low -- °F
--% Chance of Precip.
Yesterday
High -- | Low -- °F
Precip. -- in
Pressure 30.10 in
Visibility 10.0 miles
Clouds Few 12000 ft
Mostly Cloudy 20000 ft
Heat Index 75 °F
Dew Point 32 °F
Humidity 23%
Rainfall 0.00 in
Snow Depth Not available.
6:25 AM 7:33 PM
Waning Crescent, 8% visible
METAR KRNO 291555Z 00000KT 10SM FEW120 BKN200 18/M01 A3025 RMK AO2 SLP193 T01831006
Pressure 30.10 in
Visibility 10.0 miles
Clouds Few 12000 ft
Mostly Cloudy 20000 ft
Heat Index 75 °F
Dew Point 32 °F
Humidity 23%
Rainfall 0.00 in
Snow Depth Not available.
6:25 AM 7:33 PM
Waning Crescent, 8% visible
METAR KRNO 291555Z 00000KT 10SM FEW120 BKN200 18/M01 A3025 RMK AO2 SLP193 T01831006

10-Day Weather Forecast

Almanac

Astronomy

Aug. 29, 2016 Rise Set
Actual Time
Civil Twilight
Nautical Twilight
Astronomical Twilight
Moon
Length of Visible Light
Length of Day
Tomorrow will be .
, % of the Moon is Illuminated

Today's Extremes

State Highs State Lows

Community

WunderPhotos

Upload Photos

1,935,867 photos uploaded!

WunderBlog® & News

Nearby

Air Quality

  Air Quality AQ Index Pollutant
Not available.

Snow Depth

Station Depth Elevation

Earthquake Activity

City Distance Mag. Time & Date
Minimum magnitude displayed is 2.5.

Coastal Water Temperatures

Place Temperature

Stations

Nearby Weather Stations

Station Location Temp. Windchill Dew Point Humidity Wind Precip. Elev Updated Type
                   

Watches & Warnings

Fire Weather Watch
Issued: 9:04 AM PDT Aug. 29, 2016 – National Weather Service

... Fire Weather Watch remains in effect from Tuesday afternoon
through Tuesday evening for gusty winds and low humidity from the
Sierra front in Douglas County north to the Oregon border...

* affected area... fire zone 270 Surprise Valley California, fire
zone 278 eastern Lassen County, fire zone 450 western Nevada
Sierra front and fire zone 458 northern Washoe County.

* Winds... southwest to west 10 to 20 mph with gusts up to 35 mph.

* Humidity... afternoon humidity will bottom out at 8 to 14%.

* Impacts... the combination of gusty winds and low humidity can
cause fire to rapidly grow in size and intensity before first
responders can contain them.

Precautionary/preparedness actions...

Avoid outdoor activities that can cause a spark near dry
vegetation... such as yard work... target shooting... or campfires.
Follow local fire restrictions. Check weather.Gov/Reno for updates
and livingwithfire.Info for preparedness tips.



Http://weather.Gov/Reno